sensor_id;sensor_type;location;lat;lon;timestamp;pressure;altitude;pressure_sealevel;temperature;humidity
47524;BME280;33253;42.144;25.884;2023-05-22T00:01:39;100099.31;;;16.39;100.00
47524;BME280;33253;42.144;25.884;2023-05-22T00:04:07;100107.13;;;16.42;100.00
47524;BME280;33253;42.144;25.884;2023-05-22T00:06:32;100100.22;;;16.44;100.00
47524;BME280;33253;42.144;25.884;2023-05-22T00:08:58;100035.72;;;16.13;100.00
47524;BME280;33253;42.144;25.884;2023-05-22T00:11:24;100094.19;;;16.54;100.00
47524;BME280;33253;42.144;25.884;2023-05-22T00:13:51;100088.03;;;16.44;100.00
47524;BME280;33253;42.144;25.884;2023-05-22T00:16:17;100087.19;;;16.44;100.00
47524;BME280;33253;42.144;25.884;2023-05-22T00:18:42;100088.03;;;16.41;100.00
47524;BME280;33253;42.144;25.884;2023-05-22T00:21:09;100074.06;;;16.34;100.00
47524;BME280;33253;42.144;25.884;2023-05-22T00:23:34;100072.38;;;16.38;100.00
47524;BME280;33253;42.144;25.884;2023-05-22T00:26:00;100081.97;;;16.48;100.00
47524;BME280;33253;42.144;25.884;2023-05-22T00:28:26;100021.00;;;16.15;100.00
47524;BME280;33253;42.144;25.884;2023-05-22T00:30:52;100088.97;;;16.54;100.00
47524;BME280;33253;42.144;25.884;2023-05-22T00:33:17;100029.78;;;16.34;100.00
47524;BME280;33253;42.144;25.884;2023-05-22T00:35:43;100025.41;;;16.26;100.00
47524;BME280;33253;42.144;25.884;2023-05-22T00:38:08;100097.72;;;16.64;100.00
47524;BME280;33253;42.144;25.884;2023-05-22T00:40:34;100089.91;;;16.65;100.00
47524;BME280;33253;42.144;25.884;2023-05-22T00:42:59;100069.06;;;16.62;100.00
47524;BME280;33253;42.144;25.884;2023-05-22T00:45:25;100093.47;;;16.85;100.00
47524;BME280;33253;42.144;25.884;2023-05-22T00:47:50;100093.47;;;16.85;100.00
47524;BME280;33253;42.144;25.884;2023-05-22T00:50:17;100097.84;;;16.86;100.00
47524;BME280;33253;42.144;25.884;2023-05-22T00:52:44;100099.59;;;16.88;100.00
47524;BME280;33253;42.144;25.884;2023-05-22T00:55:30;100089.09;;;16.76;100.00
47524;BME280;33253;42.144;25.884;2023-05-22T00:57:56;100091.53;;;16.48;100.00
47524;BME280;33253;42.144;25.884;2023-05-22T01:00:21;100096.56;;;16.23;100.00
47524;BME280;33253;42.144;25.884;2023-05-22T01:02:47;100099.22;;;16.26;100.00
47524;BME280;33253;42.144;25.884;2023-05-22T01:05:13;100093.16;;;16.29;100.00
47524;BME280;33253;42.144;25.884;2023-05-22T01:07:43;100110.59;;;16.39;100.00
47524;BME280;33253;42.144;25.884;2023-05-22T01:10:09;100079.34;;;16.41;100.00
47524;BME280;33253;42.144;25.884;2023-05-22T01:20:31;100097.72;;;16.64;100.00
47524;BME280;33253;42.144;25.884;2023-05-22T01:29:22;100100.25;;;16.53;100.00
47524;BME280;33253;42.144;25.884;2023-05-22T01:31:46;100088.13;;;16.54;100.00
47524;BME280;33253;42.144;25.884;2023-05-22T01:34:13;100083.78;;;16.57;100.00
47524;BME280;33253;42.144;25.884;2023-05-22T01:36:44;100018.34;;;16.12;100.00
47524;BME280;33253;42.144;25.884;2023-05-22T01:39:11;100081.88;;;16.34;100.00
47524;BME280;33253;42.144;25.884;2023-05-22T01:41:37;100094.91;;;16.33;100.00
47524;BME280;33253;42.144;25.884;2023-05-22T01:44:04;100020.81;;;15.92;100.00
47524;BME280;33253;42.144;25.884;2023-05-22T01:46:30;100090.66;;;16.43;100.00
47524;BME280;33253;42.144;25.884;2023-05-22T01:48:56;100025.31;;;16.09;100.00
47524;BME280;33253;42.144;25.884;2023-05-22T01:51:35;100014.00;;;16.07;100.00
47524;BME280;33253;42.144;25.884;2023-05-22T01:54:15;100085.56;;;16.60;100.00
47524;BME280;33253;42.144;25.884;2023-05-22T01:56:59;99997.47;;;16.01;100.00
47524;BME280;33253;42.144;25.884;2023-05-22T01:59:43;100083.75;;;16.53;100.00
47524;BME280;33253;42.144;25.884;2023-05-22T02:02:14;100084.66;;;16.56;100.00
47524;BME280;33253;42.144;25.884;2023-05-22T02:04:45;100078.56;;;16.56;100.00
47524;BME280;33253;42.144;25.884;2023-05-22T02:07:12;100078.50;;;16.45;100.00
47524;BME280;33253;42.144;25.884;2023-05-22T02:09:39;100083.72;;;16.48;100.00
47524;BME280;33253;42.144;25.884;2023-05-22T02:12:05;100077.69;;;16.54;100.00
47524;BME280;33253;42.144;25.884;2023-05-22T02:14:32;100082.06;;;16.61;100.00
47524;BME280;33253;42.144;25.884;2023-05-22T02:16:58;100082.97;;;16.66;100.00
47524;BME280;33253;42.144;25.884;2023-05-22T02:19:26;100079.44;;;16.59;100.00
47524;BME280;33253;42.144;25.884;2023-05-22T02:21:51;100061.13;;;16.44;100.00
47524;BME280;33253;42.144;25.884;2023-05-22T02:24:17;100084.50;;;16.31;100.00
47524;BME280;33253;42.144;25.884;2023-05-22T02:26:43;100070.47;;;16.14;100.00
47524;BME280;33253;42.144;25.884;2023-05-22T02:29:08;100064.38;;;16.09;100.00
47524;BME280;33253;42.144;25.884;2023-05-22T02:31:34;100002.41;;;15.71;100.00
47524;BME280;33253;42.144;25.884;2023-05-22T02:33:59;100084.34;;;16.16;100.00
47524;BME280;33253;42.144;25.884;2023-05-22T02:36:25;100078.28;;;16.14;100.00
47524;BME280;33253;42.144;25.884;2023-05-22T02:38:51;100082.59;;;16.13;100.00
47524;BME280;33253;42.144;25.884;2023-05-22T02:41:17;100084.31;;;16.10;100.00
47524;BME280;33253;42.144;25.884;2023-05-22T02:43:42;100023.16;;;15.64;100.00
47524;BME280;33253;42.144;25.884;2023-05-22T02:46:07;100072.78;;;15.81;100.00
47524;BME280;33253;42.144;25.884;2023-05-22T02:48:33;100077.03;;;15.72;100.00
47524;BME280;33253;42.144;25.884;2023-05-22T02:50:58;100076.97;;;15.67;100.00
47524;BME280;33253;42.144;25.884;2023-05-22T02:53:24;100077.81;;;15.64;100.00
47524;BME280;33253;42.144;25.884;2023-05-22T02:55:49;100077.81;;;15.67;100.00
47524;BME280;33253;42.144;25.884;2023-05-22T02:58:16;100076.09;;;15.66;100.00
47524;BME280;33253;42.144;25.884;2023-05-22T03:00:43;100084.78;;;15.70;100.00
47524;BME280;33253;42.144;25.884;2023-05-22T03:03:09;100032.44;;;15.37;100.00
47524;BME280;33253;42.144;25.884;2023-05-22T03:05:35;100049.00;;;15.47;100.00
47524;BME280;33253;42.144;25.884;2023-05-22T03:08:01;100083.13;;;15.78;100.00
47524;BME280;33253;42.144;25.884;2023-05-22T03:10:26;100085.88;;;15.89;100.00
47524;BME280;33253;42.144;25.884;2023-05-22T03:12:52;100088.53;;;15.95;100.00
47524;BME280;33253;42.144;25.884;2023-05-22T03:15:17;100080.47;;;15.72;100.00
47524;BME280;33253;42.144;25.884;2023-05-22T03:17:43;100095.19;;;15.68;100.00
47524;BME280;33253;42.144;25.884;2023-05-22T03:20:09;100082.38;;;15.84;100.00
47524;BME280;33253;42.144;25.884;2023-05-22T03:22:35;100085.03;;;15.93;100.00
47524;BME280;33253;42.144;25.884;2023-05-22T03:25:00;100020.50;;;15.57;100.00
47524;BME280;33253;42.144;25.884;2023-05-22T03:27:26;100002.41;;;15.69;100.00
47524;BME280;33253;42.144;25.884;2023-05-22T03:29:51;100080.91;;;16.18;100.00
47524;BME280;33253;42.144;25.884;2023-05-22T03:32:17;100095.72;;;16.24;100.00
47524;BME280;33253;42.144;25.884;2023-05-22T03:34:42;100087.00;;;16.22;100.00
47524;BME280;33253;42.144;25.884;2023-05-22T03:37:08;100081.81;;;16.22;100.00
47524;BME280;33253;42.144;25.884;2023-05-22T03:39:34;100087.00;;;16.22;100.00
47524;BME280;33253;42.144;25.884;2023-05-22T03:41:59;99993.69;;;15.68;100.00
47524;BME280;33253;42.144;25.884;2023-05-22T03:44:25;100081.75;;;16.13;100.00
47524;BME280;33253;42.144;25.884;2023-05-22T03:46:50;100082.66;;;16.16;100.00
47524;BME280;33253;42.144;25.884;2023-05-22T03:49:16;100071.34;;;16.14;100.00
47524;BME280;33253;42.144;25.884;2023-05-22T03:51:41;100093.97;;;16.20;100.00
47524;BME280;33253;42.144;25.884;2023-05-22T03:54:08;100083.41;;;16.03;100.00
47524;BME280;33253;42.144;25.884;2023-05-22T03:56:34;100087.75;;;16.06;100.00
47524;BME280;33253;42.144;25.884;2023-05-22T03:59:00;100097.31;;;16.10;100.00
47524;BME280;33253;42.144;25.884;2023-05-22T04:01:26;100098.91;;;15.92;100.00
47524;BME280;33253;42.144;25.884;2023-05-22T04:03:51;100096.94;;;15.69;100.00
47524;BME280;33253;42.144;25.884;2023-05-22T04:06:17;100105.25;;;15.37;100.00
47524;BME280;33253;42.144;25.884;2023-05-22T04:08:48;100094.91;;;15.39;100.00
47524;BME280;33253;42.144;25.884;2023-05-22T04:11:14;100106.38;;;15.61;100.00
47524;BME280;33253;42.144;25.884;2023-05-22T04:13:41;100096.03;;;15.67;100.00
47524;BME280;33253;42.144;25.884;2023-05-22T04:16:06;100108.41;;;15.85;100.00
47524;BME280;33253;42.144;25.884;2023-05-22T04:18:32;100106.75;;;15.94;100.00
47524;BME280;33253;42.144;25.884;2023-05-22T04:20:57;100063.25;;;15.82;100.00
47524;BME280;33253;42.144;25.884;2023-05-22T04:23:22;100122.56;;;16.17;100.00
47524;BME280;33253;42.144;25.884;2023-05-22T04:25:48;100121.72;;;16.20;100.00
47524;BME280;33253;42.144;25.884;2023-05-22T04:28:14;100120.00;;;16.22;100.00
47524;BME280;33253;42.144;25.884;2023-05-22T04:30:42;100117.41;;;16.25;100.00
47524;BME280;33253;42.144;25.884;2023-05-22T04:33:07;100127.06;;;16.37;100.00
47524;BME280;33253;42.144;25.884;2023-05-22T04:35:33;100134.03;;;16.41;100.00
47524;BME280;33253;42.144;25.884;2023-05-22T04:37:59;100128.88;;;16.47;100.00
47524;BME280;33253;42.144;25.884;2023-05-22T04:40:28;100131.47;;;16.44;100.00
47524;BME280;33253;42.144;25.884;2023-05-22T04:42:54;100139.25;;;16.41;100.00
47524;BME280;33253;42.144;25.884;2023-05-22T04:45:20;100150.53;;;16.37;100.00
47524;BME280;33253;42.144;25.884;2023-05-22T04:47:50;100135.69;;;16.31;100.00
47524;BME280;33253;42.144;25.884;2023-05-22T04:50:16;100137.34;;;16.18;100.00
47524;BME280;33253;42.144;25.884;2023-05-22T04:52:43;100138.13;;;16.11;100.00
47524;BME280;33253;42.144;25.884;2023-05-22T04:55:08;100138.13;;;16.11;100.00
47524;BME280;33253;42.144;25.884;2023-05-22T04:57:36;100145.97;;;16.12;100.00
47524;BME280;33253;42.144;25.884;2023-05-22T05:00:03;100112.03;;;16.05;100.00
47524;BME280;33253;42.144;25.884;2023-05-22T05:02:29;100132.94;;;16.12;100.00
47524;BME280;33253;42.144;25.884;2023-05-22T05:04:55;100082.34;;;15.82;100.00
47524;BME280;33253;42.144;25.884;2023-05-22T05:07:20;100118.09;;;16.00;100.00
47524;BME280;33253;42.144;25.884;2023-05-22T05:09:45;100143.44;;;16.22;100.00
47524;BME280;33253;42.144;25.884;2023-05-22T05:12:11;100126.06;;;16.19;100.00
47524;BME280;33253;42.144;25.884;2023-05-22T05:14:36;100082.53;;;16.03;100.00
47524;BME280;33253;42.144;25.884;2023-05-22T05:17:02;100152.38;;;16.50;100.00
47524;BME280;33253;42.144;25.884;2023-05-22T05:19:28;100151.56;;;16.60;100.00
47524;BME280;33253;42.144;25.884;2023-05-22T05:21:54;100149.91;;;16.69;100.00
47524;BME280;33253;42.144;25.884;2023-05-22T05:24:19;100133.38;;;16.68;100.00
47524;BME280;33253;42.144;25.884;2023-05-22T05:26:44;100144.75;;;16.81;100.00
47524;BME280;33253;42.144;25.884;2023-05-22T05:29:10;100078.56;;;16.51;100.00
47524;BME280;33253;42.144;25.884;2023-05-22T05:31:37;100138.66;;;16.80;100.00
47524;BME280;33253;42.144;25.884;2023-05-22T05:34:02;100148.22;;;16.85;100.00
47524;BME280;33253;42.144;25.884;2023-05-22T05:36:28;100147.41;;;16.89;100.00
47524;BME280;33253;42.144;25.884;2023-05-22T05:38:53;100150.88;;;16.88;100.00
47524;BME280;33253;42.144;25.884;2023-05-22T05:41:20;100160.50;;;16.93;100.00
47524;BME280;33253;42.144;25.884;2023-05-22T05:43:47;100149.28;;;17.04;100.00
47524;BME280;33253;42.144;25.884;2023-05-22T05:46:12;100132.63;;;16.91;100.00
47524;BME280;33253;42.144;25.884;2023-05-22T05:48:38;100150.97;;;17.00;100.00
47524;BME280;33253;42.144;25.884;2023-05-22T05:51:04;100089.09;;;16.71;100.00
47524;BME280;33253;42.144;25.884;2023-05-22T05:53:30;100154.47;;;17.05;100.00
47524;BME280;33253;42.144;25.884;2023-05-22T05:55:56;100153.72;;;17.25;100.00
47524;BME280;33253;42.144;25.884;2023-05-22T05:58:21;100162.47;;;17.44;100.00
47524;BME280;33253;42.144;25.884;2023-05-22T06:00:46;100160.78;;;17.54;100.00
47524;BME280;33253;42.144;25.884;2023-05-22T06:03:12;100153.84;;;17.59;100.00
47524;BME280;33253;42.144;25.884;2023-05-22T06:05:38;100152.09;;;17.59;100.00
47524;BME280;33253;42.144;25.884;2023-05-22T06:08:04;100159.13;;;17.76;100.00
47524;BME280;33253;42.144;25.884;2023-05-22T06:10:30;100166.94;;;17.79;100.00
47524;BME280;33253;42.144;25.884;2023-05-22T06:12:55;100160.84;;;17.80;100.00
47524;BME280;33253;42.144;25.884;2023-05-22T06:15:21;100175.66;;;17.90;100.00
47524;BME280;33253;42.144;25.884;2023-05-22T06:17:46;100166.16;;;17.99;100.00
47524;BME280;33253;42.144;25.884;2023-05-22T06:20:12;100055.47;;;17.32;100.00
47524;BME280;33253;42.144;25.884;2023-05-22T06:22:38;100166.09;;;17.86;100.00
47524;BME280;33253;42.144;25.884;2023-05-22T06:25:04;100169.63;;;17.98;100.00
47524;BME280;33253;42.144;25.884;2023-05-22T06:27:29;100155.66;;;17.92;100.00
47524;BME280;33253;42.144;25.884;2023-05-22T06:29:55;100164.44;;;18.07;100.00
47524;BME280;33253;42.144;25.884;2023-05-22T06:32:21;100162.69;;;18.14;100.00
47524;BME280;33253;42.144;25.884;2023-05-22T06:34:47;100160.03;;;18.03;98.69
47524;BME280;33253;42.144;25.884;2023-05-22T06:37:13;100165.28;;;18.09;99.13
47524;BME280;33253;42.144;25.884;2023-05-22T06:39:40;100167.91;;;18.15;97.50
47524;BME280;33253;42.144;25.884;2023-05-22T06:42:05;100147.88;;;18.14;97.85
47524;BME280;33253;42.144;25.884;2023-05-22T06:44:31;100120.00;;;17.98;97.88
47524;BME280;33253;42.144;25.884;2023-05-22T06:46:56;100118.25;;;17.95;98.55
47524;BME280;33253;42.144;25.884;2023-05-22T06:49:22;100154.84;;;18.21;97.59
47524;BME280;33253;42.144;25.884;2023-05-22T06:51:47;100163.56;;;18.39;97.08
47524;BME280;33253;42.144;25.884;2023-05-22T06:54:13;100174.91;;;18.52;95.84
47524;BME280;33253;42.144;25.884;2023-05-22T06:56:40;100186.22;;;18.58;95.54
47524;BME280;33253;42.144;25.884;2023-05-22T06:59:05;100158.31;;;18.53;95.22
47524;BME280;33253;42.144;25.884;2023-05-22T07:01:31;100181.88;;;18.67;95.02
47524;BME280;33253;42.144;25.884;2023-05-22T07:03:57;100176.63;;;18.62;94.97
47524;BME280;33253;42.144;25.884;2023-05-22T07:06:24;100194.91;;;18.78;95.60
47524;BME280;33253;42.144;25.884;2023-05-22T07:08:50;100191.41;;;18.83;98.22
47524;BME280;33253;42.144;25.884;2023-05-22T07:11:15;100192.28;;;18.84;97.53
47524;BME280;33253;42.144;25.884;2023-05-22T07:13:41;100190.53;;;18.87;96.87
47524;BME280;33253;42.144;25.884;2023-05-22T07:16:06;100169.63;;;18.76;96.49
47524;BME280;33253;42.144;25.884;2023-05-22T07:18:32;100178.34;;;18.88;96.07
47524;BME280;33253;42.144;25.884;2023-05-22T07:20:57;100130.44;;;18.64;98.25
47524;BME280;33253;42.144;25.884;2023-05-22T07:23:23;100182.72;;;18.97;97.61
47524;BME280;33253;42.144;25.884;2023-05-22T07:25:48;100129.56;;;18.64;97.17
47524;BME280;33253;42.144;25.884;2023-05-22T07:28:13;100192.31;;;18.99;95.13
47524;BME280;33253;42.144;25.884;2023-05-22T07:30:39;100178.38;;;18.94;96.10
47524;BME280;33253;42.144;25.884;2023-05-22T07:33:05;100184.44;;;18.91;93.39
47524;BME280;33253;42.144;25.884;2023-05-22T07:35:30;100186.19;;;18.97;96.24
47524;BME280;33253;42.144;25.884;2023-05-22T07:37:56;100190.53;;;19.00;96.35
47524;BME280;33253;42.144;25.884;2023-05-22T07:40:21;100107.81;;;18.51;nan
47524;BME280;33253;42.144;25.884;2023-05-22T07:42:47;100184.44;;;19.01;93.82
47524;BME280;33253;42.144;25.884;2023-05-22T07:45:12;100178.31;;;19.00;92.88
47524;BME280;33253;42.144;25.884;2023-05-22T07:47:38;100192.28;;;19.07;94.69
47524;BME280;33253;42.144;25.884;2023-05-22T07:50:04;100097.31;;;18.65;95.63
47524;BME280;33253;42.144;25.884;2023-05-22T07:52:29;100183.50;;;19.22;93.11
47524;BME280;33253;42.144;25.884;2023-05-22T07:54:58;100163.47;;;19.15;91.94
47524;BME280;33253;42.144;25.884;2023-05-22T07:57:23;100185.19;;;19.34;93.52
47524;BME280;33253;42.144;25.884;2023-05-22T07:59:49;100047.66;;;18.58;93.36
47524;BME280;33253;42.144;25.884;2023-05-22T08:02:16;100186.94;;;19.44;93.59
47524;BME280;33253;42.144;25.884;2023-05-22T08:04:42;100181.66;;;19.50;91.83
47524;BME280;33253;42.144;25.884;2023-05-22T08:07:08;100161.59;;;19.49;92.47
47524;BME280;33253;42.144;25.884;2023-05-22T08:09:34;100173.75;;;19.55;90.32
47524;BME280;33253;42.144;25.884;2023-05-22T08:11:59;100127.63;;;19.32;91.27
47524;BME280;33253;42.144;25.884;2023-05-22T08:14:25;100182.50;;;19.60;90.67
47524;BME280;33253;42.144;25.884;2023-05-22T08:16:50;100178.09;;;19.64;88.40
47524;BME280;33253;42.144;25.884;2023-05-22T08:19:16;100169.34;;;19.65;91.83
47524;BME280;33253;42.144;25.884;2023-05-22T08:21:42;100169.31;;;19.71;88.65
47524;BME280;33253;42.144;25.884;2023-05-22T08:24:07;100178.00;;;19.92;89.03
47524;BME280;33253;42.144;25.884;2023-05-22T08:26:33;100180.53;;;20.04;86.95
47524;BME280;33253;42.144;25.884;2023-05-22T08:28:59;100179.59;;;20.13;87.53
47524;BME280;33253;42.144;25.884;2023-05-22T08:31:24;100178.69;;;20.17;83.87
47524;BME280;33253;42.144;25.884;2023-05-22T08:33:50;100178.66;;;20.22;85.47
47524;BME280;33253;42.144;25.884;2023-05-22T08:36:15;100181.22;;;20.28;87.38
47524;BME280;33253;42.144;25.884;2023-05-22T08:38:41;100186.44;;;20.31;84.14
47524;BME280;33253;42.144;25.884;2023-05-22T08:41:07;100187.31;;;20.31;84.04
47524;BME280;33253;42.144;25.884;2023-05-22T08:43:32;100185.56;;;20.30;83.36
47524;BME280;33253;42.144;25.884;2023-05-22T08:46:04;100174.16;;;20.36;83.09
47524;BME280;33253;42.144;25.884;2023-05-22T08:48:31;100124.47;;;20.22;83.75
47524;BME280;33253;42.144;25.884;2023-05-22T08:50:59;100146.19;;;20.41;81.45
47524;BME280;33253;42.144;25.884;2023-05-22T08:53:27;100180.88;;;20.68;83.36
47524;BME280;33253;42.144;25.884;2023-05-22T08:55:53;100186.00;;;20.83;81.72
47524;BME280;33253;42.144;25.884;2023-05-22T08:58:21;100131.09;;;20.63;81.63
47524;BME280;33253;42.144;25.884;2023-05-22T09:00:47;100146.63;;;20.87;81.56
47524;BME280;33253;42.144;25.884;2023-05-22T09:03:14;100183.06;;;21.16;81.20
47524;BME280;33253;42.144;25.884;2023-05-22T09:05:40;100182.19;;;21.15;79.28
47524;BME280;33253;42.144;25.884;2023-05-22T09:08:06;100178.53;;;21.29;81.59
47524;BME280;33253;42.144;25.884;2023-05-22T09:10:35;100181.94;;;21.37;80.43
47524;BME280;33253;42.144;25.884;2023-05-22T09:13:08;100175.81;;;21.37;77.34
47524;BME280;33253;42.144;25.884;2023-05-22T09:15:35;100178.38;;;21.41;79.04
47524;BME280;33253;42.144;25.884;2023-05-22T09:18:04;100152.88;;;21.49;78.96
47524;BME280;33253;42.144;25.884;2023-05-22T09:20:37;100179.00;;;21.63;74.44
47524;BME280;33253;42.144;25.884;2023-05-22T09:23:12;100149.91;;;21.77;73.96
47524;BME280;33253;42.144;25.884;2023-05-22T09:25:46;100137.38;;;21.95;75.89
47524;BME280;33253;42.144;25.884;2023-05-22T09:28:12;100131.84;;;22.13;73.81
47524;BME280;33253;42.144;25.884;2023-05-22T09:30:37;100134.41;;;22.18;71.01
47524;BME280;33253;42.144;25.884;2023-05-22T09:33:03;100136.84;;;22.29;73.80
47524;BME280;33253;42.144;25.884;2023-05-22T09:35:34;100129.97;;;22.20;68.76
47524;BME280;33253;42.144;25.884;2023-05-22T09:38:00;100098.56;;;22.12;67.90
47524;BME280;33253;42.144;25.884;2023-05-22T09:40:26;100125.22;;;22.45;67.44
47524;BME280;33253;42.144;25.884;2023-05-22T09:42:53;100120.50;;;22.63;72.68
47524;BME280;33253;42.144;25.884;2023-05-22T09:45:20;100115.28;;;22.60;74.60
47524;BME280;33253;42.144;25.884;2023-05-22T09:47:48;100119.81;;;22.52;73.28
47524;BME280;33253;42.144;25.884;2023-05-22T09:50:14;100119.91;;;22.47;74.16
47524;BME280;33253;42.144;25.884;2023-05-22T09:52:43;100127.94;;;22.39;73.34
47524;BME280;33253;42.144;25.884;2023-05-22T09:55:09;100109.63;;;22.33;71.71
47524;BME280;33253;42.144;25.884;2023-05-22T09:57:42;100104.91;;;22.52;70.07
47524;BME280;33253;42.144;25.884;2023-05-22T10:00:11;100057.69;;;22.46;68.21
47524;BME280;33253;42.144;25.884;2023-05-22T10:02:41;100119.72;;;23.03;70.07
47524;BME280;33253;42.144;25.884;2023-05-22T10:05:08;100120.38;;;23.15;69.92
47524;BME280;33253;42.144;25.884;2023-05-22T10:07:35;100105.25;;;23.26;71.54
47524;BME280;33253;42.144;25.884;2023-05-22T10:12:40;100119.13;;;23.34;69.96
47524;BME280;33253;42.144;25.884;2023-05-22T10:15:08;100039.09;;;22.99;68.26
47524;BME280;33253;42.144;25.884;2023-05-22T10:17:35;100103.03;;;23.48;66.22
47524;BME280;33253;42.144;25.884;2023-05-22T10:20:01;100098.78;;;23.41;62.60
47524;BME280;33253;42.144;25.884;2023-05-22T10:22:28;100075.97;;;23.41;66.28
47524;BME280;33253;42.144;25.884;2023-05-22T10:24:55;100091.78;;;23.79;70.70
47524;BME280;33253;42.144;25.884;2023-05-22T10:27:22;100086.25;;;23.88;66.01
47524;BME280;33253;42.144;25.884;2023-05-22T10:35:41;100070.38;;;23.93;62.49
47524;BME280;33253;42.144;25.884;2023-05-22T10:40:44;100074.47;;;24.39;64.24
47524;BME280;33253;42.144;25.884;2023-05-22T10:43:11;100074.06;;;24.53;56.98
47524;BME280;33253;42.144;25.884;2023-05-22T10:45:36;100077.63;;;24.85;58.29
47524;BME280;33253;42.144;25.884;2023-05-22T10:48:06;100070.41;;;25.22;56.86
47524;BME280;33253;42.144;25.884;2023-05-22T10:50:33;100026.13;;;25.30;56.97
47524;BME280;33253;42.144;25.884;2023-05-22T10:53:27;100063.53;;;25.75;58.31
47524;BME280;33253;42.144;25.884;2023-05-22T10:55:53;100051.09;;;25.77;57.56
47524;BME280;33253;42.144;25.884;2023-05-22T10:58:33;99966.78;;;25.42;55.57
47524;BME280;33253;42.144;25.884;2023-05-22T11:01:23;100043.47;;;25.94;52.54
47524;BME280;33253;42.144;25.884;2023-05-22T11:06:34;99975.81;;;25.89;51.75
47524;BME280;33253;42.144;25.884;2023-05-22T11:11:40;99963.00;;;26.02;50.76
47524;BME280;33253;42.144;25.884;2023-05-22T11:14:06;100024.78;;;26.51;49.55
47524;BME280;33253;42.144;25.884;2023-05-22T11:16:32;100021.00;;;26.58;51.90
47524;BME280;33253;42.144;25.884;2023-05-22T11:19:05;100017.22;;;26.66;52.21
47524;BME280;33253;42.144;25.884;2023-05-22T11:21:43;99993.47;;;26.39;48.97
47524;BME280;33253;42.144;25.884;2023-05-22T11:24:09;100016.75;;;26.29;49.57
47524;BME280;33253;42.144;25.884;2023-05-22T11:26:35;100003.72;;;26.48;51.15
47524;BME280;33253;42.144;25.884;2023-05-22T11:29:01;99919.34;;;26.15;52.60
47524;BME280;33253;42.144;25.884;2023-05-22T11:56:07;99990.91;;;27.08;48.27
47524;BME280;33253;42.144;25.884;2023-05-22T11:58:33;99913.75;;;26.94;46.37
47524;BME280;33253;42.144;25.884;2023-05-22T12:01:02;99986.34;;;27.56;47.96
47524;BME280;33253;42.144;25.884;2023-05-22T12:03:28;99983.03;;;27.51;46.47
47524;BME280;33253;42.144;25.884;2023-05-22T12:05:59;99970.94;;;27.44;47.67
47524;BME280;33253;42.144;25.884;2023-05-22T12:08:27;99980.06;;;27.37;47.48
47524;BME280;33253;42.144;25.884;2023-05-22T12:10:53;99913.00;;;26.90;48.17
47524;BME280;33253;42.144;25.884;2023-05-22T12:13:40;99916.31;;;26.73;48.96
47524;BME280;33253;42.144;25.884;2023-05-22T12:16:26;99992.94;;;26.78;49.41
47524;BME280;33253;42.144;25.884;2023-05-22T12:19:12;99988.34;;;26.34;51.59
47524;BME280;33253;42.144;25.884;2023-05-22T12:21:39;99987.09;;;25.94;55.65
47524;BME280;33253;42.144;25.884;2023-05-22T12:24:07;99976.41;;;25.43;58.81
47524;BME280;33253;42.144;25.884;2023-05-22T12:26:35;99908.78;;;24.81;59.78
47524;BME280;33253;42.144;25.884;2023-05-22T12:29:17;99969.44;;;25.41;56.50
47524;BME280;33253;42.144;25.884;2023-05-22T12:31:44;99977.53;;;25.34;58.33
47524;BME280;33253;42.144;25.884;2023-05-22T12:34:14;99955.16;;;24.91;58.06
47524;BME280;33253;42.144;25.884;2023-05-22T12:36:46;99993.63;;;24.68;57.02
47524;BME280;33253;42.144;25.884;2023-05-22T12:39:16;99975.88;;;24.44;60.18
47524;BME280;33253;42.144;25.884;2023-05-22T12:41:48;99980.19;;;24.46;58.21
47524;BME280;33253;42.144;25.884;2023-05-22T12:44:16;99967.34;;;24.34;58.69
47524;BME280;33253;42.144;25.884;2023-05-22T12:47:01;99978.66;;;24.99;60.06
47524;BME280;33253;42.144;25.884;2023-05-22T12:49:28;99977.25;;;25.45;57.04
47524;BME280;33253;42.144;25.884;2023-05-22T12:51:55;99962.19;;;25.74;57.96
47524;BME280;33253;42.144;25.884;2023-05-22T12:54:21;99902.66;;;25.35;57.37
47524;BME280;33253;42.144;25.884;2023-05-22T12:56:47;99948.88;;;25.50;59.95
47524;BME280;33253;42.144;25.884;2023-05-22T12:59:34;99958.34;;;25.58;56.05
47524;BME280;33253;42.144;25.884;2023-05-22T13:02:05;99972.75;;;25.74;58.09
47524;BME280;33253;42.144;25.884;2023-05-22T13:04:33;99972.91;;;25.43;53.33
47524;BME280;33253;42.144;25.884;2023-05-22T13:07:00;99971.03;;;25.46;61.35
47524;BME280;33253;42.144;25.884;2023-05-22T13:09:27;99970.59;;;25.32;57.94
47524;BME280;33253;42.144;25.884;2023-05-22T13:11:54;99948.41;;;24.81;62.46
47524;BME280;33253;42.144;25.884;2023-05-22T13:14:21;100014.72;;;24.70;66.12
47524;BME280;33253;42.144;25.884;2023-05-22T13:16:49;100029.78;;;24.00;64.21
47524;BME280;33253;42.144;25.884;2023-05-22T13:19:34;99970.47;;;22.66;69.58
47524;BME280;33253;42.144;25.884;2023-05-22T13:22:01;100043.59;;;22.49;72.41
47524;BME280;33253;42.144;25.884;2023-05-22T13:24:26;99983.69;;;21.66;72.01
47524;BME280;33253;42.144;25.884;2023-05-22T13:26:58;100026.88;;;21.46;73.78
47524;BME280;33253;42.144;25.884;2023-05-22T13:29:23;100068.22;;;21.30;88.20
47524;BME280;33253;42.144;25.884;2023-05-22T13:31:48;100052.38;;;20.71;96.88